Elma, New York
Current Conditions -  °F | °C
As of 8:54 AM on Tuesday 27 Jan 2015 (Local Time) from KBUF Reporting Station
Light Snow Light Snow  
Wind Chill:   Ceiling: 6500
Heat Index: 14°   Visibility: 4mi
Dew Point:   Wind: 8mph
Humidity: 80%   Direction: 20°NNE
Pressure: 30"   Gusts: NA
Location:  42.85°N, 78.64°W
Report Text: KBUF 271354Z 02007KT 4SM -SN SCT014 SCT038 OVC065 M10/M13 A3000 RMK AO2 SLP174 DRSN P0000 T11001128
Loading
Personal Weather Stations






























Interactive Weather Map New forecast layout! Learn more

10-Day Weather Forecast

Advertisements
Track Severe Weather on mobile